Ana Sayfa
METAR-TAF:

METAR-TAF

Havaalanları :

Bahreyn, Bahreyn

Enlem: 26-16N, Boylam: 050-39E, yükseklik: 2 m

Güncel hava durumu gözlemi

Rapor saat 17:00 UTC de 13 dakika önce yapıldı.
Rüzgar kuzey/kuzeybatıdan 4 kt
Sıcaklık 34°C
Nem 53%
Basınç 998 hPa
Görüş mesafesi 10 km veya daha fazla
1500 m altında bulut yok ve kümülonimbus yok

METAR: OBBI 191700Z 34004KT CAVOK 34/23 Q0998 NOSIG

Saat: 20:13 (17:13 UTC)

Tahmin

Rapor saat 11:00 UTC de 6 saat ve 13 dakika önce yapıldı.
Ayın 19'si saat 12 UTC'den ayın 20'si saat 18 UTC'ye kadar geçerli Tahmin
Rüzgar kuzey/kuzeybatıdan 16 kt
Görüş mesafesi 10 km veya daha fazla
1500 m altında bulut yok ve kümülonimbus yok
Dönüşüyor
ayın 19'si saat 14 UTC'den ayın 19'si saat 16 UTC'ye kadar
Rüzgar batı/kuzeybatıdan 5 kt
Dönüşüyor
ayın 20'si saat 05 UTC'den ayın 20'si saat 07 UTC'ye kadar
Rüzgar kuzey/kuzeybatıdan 15 kt

TAF: OBBI 191100Z 1912/2018 34016KT CAVOK BECMG 1914/1916 30005KT BECMG 2005/2007 34015KT

4.000'den fazla havaalanı için hava durumu gözlemleri ve tahminleri (METAR ve TAF raporları).

Kullanılabilir istasyonlar harita üzerinde sarı ve kırmızı noktalarla gösterilir.

İstasyonun adını görmek için fareyi noktanın üzerinde gezdirin.

Sonrasında hava gözlem ve tahminlerini görmek için tıklayın.

Haritayı değiştirmek için: yaklaştırmak için siyah artı işaretli yeşil düğmeye ve uzaklaştırmak için de eksi işaretli düğmeye hızla tıklayın; bitişik haritalar için yeşil okları kullanın.


METAR-TAF: